sensor_id;sensor_type;location;lat;lon;timestamp;pressure;altitude;pressure_sealevel;temperature;humidity
11053;BME280;55230;42.602;23.470;2023-01-05T00:01:20;94125.44;;;4.57;100.00
11053;BME280;55230;42.602;23.470;2023-01-05T00:03:47;94328.34;;;5.92;100.00
11053;BME280;55230;42.602;23.470;2023-01-05T00:06:15;94332.06;;;6.01;100.00
11053;BME280;55230;42.602;23.470;2023-01-05T00:08:43;94334.13;;;5.87;100.00
11053;BME280;55230;42.602;23.470;2023-01-05T00:11:11;94329.91;;;5.85;100.00
11053;BME280;55230;42.602;23.470;2023-01-05T00:13:57;94325.06;;;5.66;100.00
11053;BME280;55230;42.602;23.470;2023-01-05T00:16:41;94322.31;;;5.29;100.00
11053;BME280;55230;42.602;23.470;2023-01-05T00:19:25;94335.88;;;5.52;100.00
11053;BME280;55230;42.602;23.470;2023-01-05T00:22:14;94302.06;;;5.28;100.00
11053;BME280;55230;42.602;23.470;2023-01-05T00:24:57;94299.53;;;5.07;100.00
11053;BME280;55230;42.602;23.470;2023-01-05T00:27:23;94325.72;;;5.30;100.00
11053;BME280;55230;42.602;23.470;2023-01-05T00:29:52;94339.47;;;5.32;100.00
11053;BME280;55230;42.602;23.470;2023-01-05T00:32:18;94271.97;;;5.17;100.00
11053;BME280;55230;42.602;23.470;2023-01-05T00:34:45;94320.13;;;5.61;100.00
11053;BME280;55230;42.602;23.470;2023-01-05T00:37:12;94305.28;;;5.57;100.00
11053;BME280;55230;42.602;23.470;2023-01-05T00:39:39;94315.03;;;5.77;100.00
11053;BME280;55230;42.602;23.470;2023-01-05T00:42:05;94310.38;;;5.88;100.00
11053;BME280;55230;42.602;23.470;2023-01-05T00:44:32;93804.88;;;2.51;100.00
11053;BME280;55230;42.602;23.470;2023-01-05T00:47:00;94239.16;;;5.57;100.00
11053;BME280;55230;42.602;23.470;2023-01-05T00:49:27;94159.38;;;5.08;100.00
11053;BME280;55230;42.602;23.470;2023-01-05T00:51:54;94305.25;;;6.05;100.00
11053;BME280;55230;42.602;23.470;2023-01-05T00:54:20;94306.03;;;6.05;100.00
11053;BME280;55230;42.602;23.470;2023-01-05T00:56:47;94300.59;;;6.12;100.00
11053;BME280;55230;42.602;23.470;2023-01-05T00:59:14;94292.50;;;6.19;100.00
11053;BME280;55230;42.602;23.470;2023-01-05T01:01:41;94285.94;;;6.24;100.00
11053;BME280;55230;42.602;23.470;2023-01-05T01:04:12;94124.69;;;4.57;100.00
11053;BME280;55230;42.602;23.470;2023-01-05T01:06:38;94287.88;;;5.79;100.00
11053;BME280;55230;42.602;23.470;2023-01-05T01:09:06;94277.47;;;5.44;100.00
11053;BME280;55230;42.602;23.470;2023-01-05T01:11:33;94282.69;;;5.61;100.00
11053;BME280;55230;42.602;23.470;2023-01-05T01:13:59;94249.53;;;5.04;100.00
11053;BME280;55230;42.602;23.470;2023-01-05T01:16:26;94287.97;;;5.68;100.00
11053;BME280;55230;42.602;23.470;2023-01-05T01:18:53;94208.91;;;5.20;100.00
11053;BME280;55230;42.602;23.470;2023-01-05T01:21:21;93847.88;;;2.38;100.00
11053;BME280;55230;42.602;23.470;2023-01-05T01:23:48;94280.19;;;5.88;100.00
11053;BME280;55230;42.602;23.470;2023-01-05T01:26:14;94283.22;;;5.90;100.00
11053;BME280;55230;42.602;23.470;2023-01-05T01:28:41;94195.00;;;5.39;100.00
11053;BME280;55230;42.602;23.470;2023-01-05T01:31:08;94234.13;;;5.22;100.00
11053;BME280;55230;42.602;23.470;2023-01-05T01:33:38;94047.84;;;4.27;100.00
11053;BME280;55230;42.602;23.470;2023-01-05T01:36:06;94212.47;;;5.54;100.00
11053;BME280;55230;42.602;23.470;2023-01-05T01:38:34;94246.47;;;5.94;100.00
11053;BME280;55230;42.602;23.470;2023-01-05T01:41:01;94269.25;;;6.09;100.00
11053;BME280;55230;42.602;23.470;2023-01-05T01:43:41;94257.72;;;6.16;100.00
11053;BME280;55230;42.602;23.470;2023-01-05T01:46:08;94273.72;;;6.23;100.00
11053;BME280;55230;42.602;23.470;2023-01-05T01:48:35;94275.19;;;6.27;100.00
11053;BME280;55230;42.602;23.470;2023-01-05T01:51:06;94263.69;;;6.27;100.00
11053;BME280;55230;42.602;23.470;2023-01-05T01:53:38;94257.97;;;6.25;100.00
11053;BME280;55230;42.602;23.470;2023-01-05T01:56:07;94215.69;;;6.09;100.00
11053;BME280;55230;42.602;23.470;2023-01-05T01:58:36;94242.97;;;6.34;100.00
11053;BME280;55230;42.602;23.470;2023-01-05T02:01:03;94168.47;;;5.92;100.00
11053;BME280;55230;42.602;23.470;2023-01-05T02:03:30;94233.72;;;6.39;100.00
11053;BME280;55230;42.602;23.470;2023-01-05T02:05:57;94180.19;;;5.68;100.00
11053;BME280;55230;42.602;23.470;2023-01-05T02:08:25;94193.66;;;5.98;100.00
11053;BME280;55230;42.602;23.470;2023-01-05T02:11:07;94206.41;;;6.21;100.00
11053;BME280;55230;42.602;23.470;2023-01-05T02:13:48;94218.22;;;6.23;100.00
11053;BME280;55230;42.602;23.470;2023-01-05T02:16:26;94221.22;;;6.29;100.00
11053;BME280;55230;42.602;23.470;2023-01-05T02:22:01;94212.38;;;6.32;100.00
11053;BME280;55230;42.602;23.470;2023-01-05T02:27:45;94098.66;;;5.12;100.00
11053;BME280;55230;42.602;23.470;2023-01-05T02:33:24;94191.97;;;6.11;100.00
11053;BME280;55230;42.602;23.470;2023-01-05T02:35:57;94183.13;;;6.18;100.00
11053;BME280;55230;42.602;23.470;2023-01-05T02:38:29;94181.13;;;6.22;100.00
11053;BME280;55230;42.602;23.470;2023-01-05T02:41:03;94171.94;;;5.93;100.00
11053;BME280;55230;42.602;23.470;2023-01-05T02:43:32;93808.19;;;3.30;100.00
11053;BME280;55230;42.602;23.470;2023-01-05T02:45:59;94180.41;;;5.50;100.00
11053;BME280;55230;42.602;23.470;2023-01-05T02:48:27;94138.41;;;5.07;100.00
11053;BME280;55230;42.602;23.470;2023-01-05T02:50:57;94142.19;;;5.09;100.00
11053;BME280;55230;42.602;23.470;2023-01-05T02:53:31;94122.13;;;4.91;100.00
11053;BME280;55230;42.602;23.470;2023-01-05T02:56:01;94188.28;;;5.24;100.00
11053;BME280;55230;42.602;23.470;2023-01-05T02:58:35;94146.56;;;4.89;100.00
11053;BME280;55230;42.602;23.470;2023-01-05T03:01:06;94191.63;;;4.87;100.00
11053;BME280;55230;42.602;23.470;2023-01-05T03:03:38;94185.78;;;5.47;100.00
11053;BME280;55230;42.602;23.470;2023-01-05T03:06:10;94175.72;;;5.58;100.00
11053;BME280;55230;42.602;23.470;2023-01-05T03:08:43;94226.09;;;5.63;100.00
11053;BME280;55230;42.602;23.470;2023-01-05T03:11:13;94106.44;;;5.33;100.00
11053;BME280;55230;42.602;23.470;2023-01-05T03:13:59;94126.09;;;5.53;100.00
11053;BME280;55230;42.602;23.470;2023-01-05T03:16:33;94164.00;;;5.82;100.00
11053;BME280;55230;42.602;23.470;2023-01-05T03:19:04;94135.13;;;5.66;100.00
11053;BME280;55230;42.602;23.470;2023-01-05T03:21:50;94035.22;;;5.13;100.00
11053;BME280;55230;42.602;23.470;2023-01-05T03:24:37;94158.13;;;5.94;100.00
11053;BME280;55230;42.602;23.470;2023-01-05T03:27:22;93976.81;;;4.81;100.00
11053;BME280;55230;42.602;23.470;2023-01-05T03:30:08;94147.03;;;5.96;100.00
11053;BME280;55230;42.602;23.470;2023-01-05T03:32:59;94138.72;;;5.90;100.00
11053;BME280;55230;42.602;23.470;2023-01-05T03:35:53;94132.22;;;5.88;100.00
11053;BME280;55230;42.602;23.470;2023-01-05T03:38:26;93875.50;;;3.86;100.00
11053;BME280;55230;42.602;23.470;2023-01-05T03:40:58;94147.91;;;5.85;100.00
11053;BME280;55230;42.602;23.470;2023-01-05T03:43:26;93695.94;;;2.81;100.00
11053;BME280;55230;42.602;23.470;2023-01-05T03:45:54;94133.69;;;5.58;100.00
11053;BME280;55230;42.602;23.470;2023-01-05T03:48:23;94128.72;;;5.57;100.00
11053;BME280;55230;42.602;23.470;2023-01-05T03:50:52;94074.13;;;5.21;100.00
11053;BME280;55230;42.602;23.470;2023-01-05T03:53:19;93858.47;;;3.76;100.00
11053;BME280;55230;42.602;23.470;2023-01-05T03:55:46;94081.66;;;5.29;100.00
11053;BME280;55230;42.602;23.470;2023-01-05T03:58:12;94128.34;;;5.58;100.00
11053;BME280;55230;42.602;23.470;2023-01-05T04:00:39;94009.13;;;4.53;100.00
11053;BME280;55230;42.602;23.470;2023-01-05T04:03:06;94119.78;;;5.70;100.00
11053;BME280;55230;42.602;23.470;2023-01-05T04:05:34;94072.31;;;5.44;100.00
11053;BME280;55230;42.602;23.470;2023-01-05T04:08:03;94124.91;;;5.92;100.00
11053;BME280;55230;42.602;23.470;2023-01-05T04:10:30;93832.72;;;4.00;100.00
11053;BME280;55230;42.602;23.470;2023-01-05T04:12:57;93901.38;;;4.33;100.00
11053;BME280;55230;42.602;23.470;2023-01-05T04:15:24;94160.31;;;6.03;100.00
11053;BME280;55230;42.602;23.470;2023-01-05T04:17:51;94062.69;;;5.80;100.00
11053;BME280;55230;42.602;23.470;2023-01-05T04:20:18;94142.03;;;6.28;100.00
11053;BME280;55230;42.602;23.470;2023-01-05T04:22:45;94089.03;;;6.16;100.00
11053;BME280;55230;42.602;23.470;2023-01-05T04:25:20;94046.22;;;5.55;100.00
11053;BME280;55230;42.602;23.470;2023-01-05T04:43:50;93865.94;;;3.92;100.00
11053;BME280;55230;42.602;23.470;2023-01-05T04:53:25;93451.84;;;1.42;100.00
11053;BME280;55230;42.602;23.470;2023-01-05T04:56:00;93914.69;;;3.96;100.00
11053;BME280;55230;42.602;23.470;2023-01-05T04:58:30;94104.84;;;5.39;100.00
11053;BME280;55230;42.602;23.470;2023-01-05T05:00:58;93870.75;;;3.63;100.00
11053;BME280;55230;42.602;23.470;2023-01-05T05:03:24;94113.28;;;5.38;100.00
11053;BME280;55230;42.602;23.470;2023-01-05T05:05:51;94079.03;;;4.85;100.00
11053;BME280;55230;42.602;23.470;2023-01-05T05:08:18;94134.69;;;5.34;100.00
11053;BME280;55230;42.602;23.470;2023-01-05T05:10:45;94125.34;;;5.53;100.00
11053;BME280;55230;42.602;23.470;2023-01-05T05:13:11;94133.28;;;5.60;100.00
11053;BME280;55230;42.602;23.470;2023-01-05T05:15:38;94084.69;;;5.31;100.00
11053;BME280;55230;42.602;23.470;2023-01-05T05:18:06;93909.41;;;4.33;100.00
11053;BME280;55230;42.602;23.470;2023-01-05T05:20:36;94141.44;;;5.87;100.00
11053;BME280;55230;42.602;23.470;2023-01-05T05:23:08;94128.78;;;5.87;100.00
11053;BME280;55230;42.602;23.470;2023-01-05T05:25:34;94066.84;;;5.55;100.00
11053;BME280;55230;42.602;23.470;2023-01-05T05:28:01;94123.66;;;6.00;100.00
11053;BME280;55230;42.602;23.470;2023-01-05T05:30:31;93874.84;;;4.19;100.00
11053;BME280;55230;42.602;23.470;2023-01-05T05:32:58;94042.25;;;5.33;100.00
11053;BME280;55230;42.602;23.470;2023-01-05T05:35:26;94096.31;;;5.51;100.00
11053;BME280;55230;42.602;23.470;2023-01-05T05:37:53;94118.03;;;5.91;100.00
11053;BME280;55230;42.602;23.470;2023-01-05T05:40:19;94071.34;;;5.31;100.00
11053;BME280;55230;42.602;23.470;2023-01-05T05:42:46;94036.72;;;5.17;100.00
11053;BME280;55230;42.602;23.470;2023-01-05T05:45:13;94115.03;;;5.85;100.00
11053;BME280;55230;42.602;23.470;2023-01-05T05:47:40;94118.16;;;5.76;100.00
11053;BME280;55230;42.602;23.470;2023-01-05T05:50:08;94102.06;;;5.83;100.00
11053;BME280;55230;42.602;23.470;2023-01-05T05:52:37;93875.22;;;4.17;100.00
11053;BME280;55230;42.602;23.470;2023-01-05T05:55:04;94076.50;;;5.45;100.00
11053;BME280;55230;42.602;23.470;2023-01-05T05:57:31;93928.50;;;4.65;100.00
11053;BME280;55230;42.602;23.470;2023-01-05T05:59:58;93872.47;;;3.84;100.00
11053;BME280;55230;42.602;23.470;2023-01-05T06:02:25;94087.53;;;5.84;100.00
11053;BME280;55230;42.602;23.470;2023-01-05T06:04:51;94083.66;;;5.89;100.00
11053;BME280;55230;42.602;23.470;2023-01-05T06:07:18;94052.91;;;5.70;100.00
11053;BME280;55230;42.602;23.470;2023-01-05T06:09:46;93927.69;;;4.68;100.00
11053;BME280;55230;42.602;23.470;2023-01-05T06:12:13;93984.16;;;5.07;100.00
11053;BME280;55230;42.602;23.470;2023-01-05T06:14:40;94071.50;;;5.81;100.00
11053;BME280;55230;42.602;23.470;2023-01-05T06:17:06;94071.50;;;5.81;100.00
11053;BME280;55230;42.602;23.470;2023-01-05T06:19:33;93751.16;;;3.62;100.00
11053;BME280;55230;42.602;23.470;2023-01-05T06:22:00;93995.94;;;5.10;100.00
11053;BME280;55230;42.602;23.470;2023-01-05T06:24:27;93904.97;;;4.53;100.00
11053;BME280;55230;42.602;23.470;2023-01-05T06:26:55;93859.59;;;4.19;100.00
11053;BME280;55230;42.602;23.470;2023-01-05T06:29:22;94044.63;;;5.28;100.00
11053;BME280;55230;42.602;23.470;2023-01-05T06:31:48;94105.72;;;5.29;100.00
11053;BME280;55230;42.602;23.470;2023-01-05T06:34:15;94047.72;;;5.26;100.00
11053;BME280;55230;42.602;23.470;2023-01-05T06:36:42;94051.22;;;5.16;100.00
11053;BME280;55230;42.602;23.470;2023-01-05T06:39:09;93743.31;;;3.03;100.00
11053;BME280;55230;42.602;23.470;2023-01-05T06:41:35;93835.00;;;3.57;100.00
11053;BME280;55230;42.602;23.470;2023-01-05T06:44:03;94034.41;;;5.19;100.00
11053;BME280;55230;42.602;23.470;2023-01-05T06:46:31;93945.03;;;4.53;100.00
11053;BME280;55230;42.602;23.470;2023-01-05T06:48:58;94034.13;;;5.10;100.00
11053;BME280;55230;42.602;23.470;2023-01-05T06:51:24;94039.94;;;5.02;100.00
11053;BME280;55230;42.602;23.470;2023-01-05T06:53:51;93990.00;;;4.58;100.00
11053;BME280;55230;42.602;23.470;2023-01-05T06:56:18;94004.91;;;4.55;100.00
11053;BME280;55230;42.602;23.470;2023-01-05T06:58:44;94055.06;;;5.15;100.00
11053;BME280;55230;42.602;23.470;2023-01-05T07:01:13;93937.84;;;4.46;100.00
11053;BME280;55230;42.602;23.470;2023-01-05T07:03:39;94056.72;;;5.02;100.00
11053;BME280;55230;42.602;23.470;2023-01-05T07:06:06;93803.47;;;2.97;100.00
11053;BME280;55230;42.602;23.470;2023-01-05T07:08:33;94003.47;;;4.44;100.00
11053;BME280;55230;42.602;23.470;2023-01-05T07:11:00;93901.75;;;3.91;100.00
11053;BME280;55230;42.602;23.470;2023-01-05T07:13:26;94047.72;;;5.26;100.00
11053;BME280;55230;42.602;23.470;2023-01-05T07:15:53;94057.81;;;5.42;100.00
11053;BME280;55230;42.602;23.470;2023-01-05T07:18:21;93869.84;;;4.21;100.00
11053;BME280;55230;42.602;23.470;2023-01-05T07:20:48;94045.84;;;5.53;100.00
11053;BME280;55230;42.602;23.470;2023-01-05T07:23:15;94022.66;;;5.73;100.00
11053;BME280;55230;42.602;23.470;2023-01-05T07:25:41;93966.25;;;5.61;100.00
11053;BME280;55230;42.602;23.470;2023-01-05T07:28:08;94049.00;;;6.32;100.00
11053;BME280;55230;42.602;23.470;2023-01-05T07:30:35;94015.81;;;6.26;100.00
11053;BME280;55230;42.602;23.470;2023-01-05T07:33:02;94016.53;;;6.53;100.00
11053;BME280;55230;42.602;23.470;2023-01-05T07:35:31;94061.16;;;7.09;100.00
11053;BME280;55230;42.602;23.470;2023-01-05T07:37:58;94004.53;;;7.03;100.00
11053;BME280;55230;42.602;23.470;2023-01-05T07:40:25;94052.44;;;7.64;100.00
11053;BME280;55230;42.602;23.470;2023-01-05T07:42:53;93959.97;;;7.29;100.00
11053;BME280;55230;42.602;23.470;2023-01-05T07:45:20;94044.28;;;8.23;100.00
11053;BME280;55230;42.602;23.470;2023-01-05T07:47:47;93556.47;;;5.30;100.00
11053;BME280;55230;42.602;23.470;2023-01-05T07:50:13;94012.22;;;8.48;100.00
11053;BME280;55230;42.602;23.470;2023-01-05T07:52:42;93617.84;;;5.57;98.17
11053;BME280;55230;42.602;23.470;2023-01-05T07:55:09;93551.63;;;5.80;96.45
11053;BME280;55230;42.602;23.470;2023-01-05T07:57:35;94023.72;;;8.96;94.48
11053;BME280;55230;42.602;23.470;2023-01-05T08:00:03;94029.81;;;8.52;95.50
11053;BME280;55230;42.602;23.470;2023-01-05T08:02:30;94087.69;;;8.73;95.49
11053;BME280;55230;42.602;23.470;2023-01-05T08:04:57;94018.44;;;8.77;95.17
11053;BME280;55230;42.602;23.470;2023-01-05T08:07:24;93957.25;;;8.52;94.48
11053;BME280;55230;42.602;23.470;2023-01-05T08:09:52;93960.75;;;8.65;93.26
11053;BME280;55230;42.602;23.470;2023-01-05T08:12:36;93941.81;;;8.69;91.06
11053;BME280;55230;42.602;23.470;2023-01-05T08:15:23;93779.28;;;7.39;91.32
11053;BME280;55230;42.602;23.470;2023-01-05T08:17:49;93981.13;;;8.79;90.04
11053;BME280;55230;42.602;23.470;2023-01-05T08:20:16;94009.50;;;8.96;91.51
11053;BME280;55230;42.602;23.470;2023-01-05T08:22:43;94010.13;;;9.16;92.28
11053;BME280;55230;42.602;23.470;2023-01-05T08:25:16;93989.97;;;9.08;90.77
11053;BME280;55230;42.602;23.470;2023-01-05T08:27:43;94007.91;;;9.27;91.28
11053;BME280;55230;42.602;23.470;2023-01-05T08:30:10;94025.00;;;9.20;89.15
11053;BME280;55230;42.602;23.470;2023-01-05T08:32:38;93959.97;;;7.84;97.90
11053;BME280;55230;42.602;23.470;2023-01-05T08:35:05;93989.13;;;7.27;100.00
11053;BME280;55230;42.602;23.470;2023-01-05T08:37:31;94049.72;;;6.82;100.00
11053;BME280;55230;42.602;23.470;2023-01-05T08:39:58;94009.44;;;6.43;100.00
11053;BME280;55230;42.602;23.470;2023-01-05T08:42:26;93852.06;;;4.74;100.00
11053;BME280;55230;42.602;23.470;2023-01-05T08:44:53;93727.81;;;3.73;100.00
11053;BME280;55230;42.602;23.470;2023-01-05T08:47:20;93859.44;;;4.94;100.00
11053;BME280;55230;42.602;23.470;2023-01-05T08:49:46;93905.91;;;5.03;100.00
11053;BME280;55230;42.602;23.470;2023-01-05T08:52:14;94007.56;;;5.90;100.00
11053;BME280;55230;42.602;23.470;2023-01-05T08:54:40;93972.19;;;5.75;100.00
11053;BME280;55230;42.602;23.470;2023-01-05T08:57:08;93882.91;;;5.09;100.00
11053;BME280;55230;42.602;23.470;2023-01-05T08:59:36;94006.66;;;6.00;100.00
11053;BME280;55230;42.602;23.470;2023-01-05T09:02:03;94005.22;;;6.19;100.00
11053;BME280;55230;42.602;23.470;2023-01-05T09:04:29;93997.94;;;6.42;100.00
11053;BME280;55230;42.602;23.470;2023-01-05T09:06:56;93996.03;;;6.66;100.00
11053;BME280;55230;42.602;23.470;2023-01-05T09:09:23;93924.84;;;6.65;100.00
11053;BME280;55230;42.602;23.470;2023-01-05T09:11:50;93974.03;;;7.37;100.00
11053;BME280;55230;42.602;23.470;2023-01-05T09:14:16;94017.97;;;7.62;100.00
11053;BME280;55230;42.602;23.470;2023-01-05T09:16:45;94010.81;;;7.91;100.00
11053;BME280;55230;42.602;23.470;2023-01-05T09:19:11;93950.13;;;7.78;100.00
11053;BME280;55230;42.602;23.470;2023-01-05T09:21:38;93876.38;;;7.82;100.00
11053;BME280;55230;42.602;23.470;2023-01-05T09:24:05;93945.38;;;8.50;100.00
11053;BME280;55230;42.602;23.470;2023-01-05T09:26:33;93951.00;;;8.71;99.90
11053;BME280;55230;42.602;23.470;2023-01-05T09:28:59;93866.78;;;8.46;97.88
11053;BME280;55230;42.602;23.470;2023-01-05T09:31:26;93973.69;;;9.27;94.86
11053;BME280;55230;42.602;23.470;2023-01-05T09:33:55;93931.75;;;9.55;90.74
11053;BME280;55230;42.602;23.470;2023-01-05T09:36:22;93932.00;;;9.86;88.79
11053;BME280;55230;42.602;23.470;2023-01-05T09:38:50;93685.31;;;8.29;86.01
11053;BME280;55230;42.602;23.470;2023-01-05T09:41:20;93755.19;;;9.07;84.14
11053;BME280;55230;42.602;23.470;2023-01-05T09:43:50;93875.75;;;9.75;84.83
11053;BME280;55230;42.602;23.470;2023-01-05T09:46:20;93884.34;;;10.20;83.38
11053;BME280;55230;42.602;23.470;2023-01-05T09:48:51;93907.00;;;10.10;81.93
11053;BME280;55230;42.602;23.470;2023-01-05T09:51:19;93825.56;;;9.56;82.93
11053;BME280;55230;42.602;23.470;2023-01-05T09:53:46;93717.19;;;9.30;81.96
11053;BME280;55230;42.602;23.470;2023-01-05T09:56:25;93521.44;;;8.29;81.13
11053;BME280;55230;42.602;23.470;2023-01-05T09:58:57;93882.06;;;10.66;80.85
11053;BME280;55230;42.602;23.470;2023-01-05T10:01:30;93879.22;;;10.47;81.82
11053;BME280;55230;42.602;23.470;2023-01-05T10:04:00;93874.16;;;10.49;81.70
11053;BME280;55230;42.602;23.470;2023-01-05T10:06:33;93781.66;;;10.06;81.46
11053;BME280;55230;42.602;23.470;2023-01-05T10:09:03;93591.72;;;8.65;80.51
11053;BME280;55230;42.602;23.470;2023-01-05T10:11:35;93881.38;;;10.53;80.96
11053;BME280;55230;42.602;23.470;2023-01-05T10:14:26;93865.63;;;10.51;80.35
11053;BME280;55230;42.602;23.470;2023-01-05T10:16:54;93869.16;;;10.61;80.91
11053;BME280;55230;42.602;23.470;2023-01-05T10:19:21;93867.22;;;10.61;79.78
11053;BME280;55230;42.602;23.470;2023-01-05T10:21:57;93885.78;;;10.81;79.66
11053;BME280;55230;42.602;23.470;2023-01-05T10:24:30;93861.66;;;10.09;79.87
11053;BME280;55230;42.602;23.470;2023-01-05T10:27:05;93855.06;;;9.97;82.25
11053;BME280;55230;42.602;23.470;2023-01-05T10:29:39;93814.41;;;9.45;81.08
11053;BME280;55230;42.602;23.470;2023-01-05T10:32:21;93726.13;;;9.15;82.55
11053;BME280;55230;42.602;23.470;2023-01-05T10:34:54;93847.00;;;9.72;83.27
11053;BME280;55230;42.602;23.470;2023-01-05T10:37:36;93847.88;;;9.31;84.93
11053;BME280;55230;42.602;23.470;2023-01-05T10:40:14;93755.63;;;9.06;83.83
11053;BME280;55230;42.602;23.470;2023-01-05T10:42:52;93837.28;;;10.12;83.30
11053;BME280;55230;42.602;23.470;2023-01-05T10:45:27;93829.88;;;10.38;81.94
11053;BME280;55230;42.602;23.470;2023-01-05T10:47:55;93727.16;;;9.55;81.43
11053;BME280;55230;42.602;23.470;2023-01-05T10:50:32;93836.88;;;10.35;80.48
11053;BME280;55230;42.602;23.470;2023-01-05T10:53:09;93823.94;;;9.84;81.60
11053;BME280;55230;42.602;23.470;2023-01-05T10:55:43;93792.59;;;9.77;82.38
11053;BME280;55230;42.602;23.470;2023-01-05T10:58:26;93784.56;;;10.11;82.16
11053;BME280;55230;42.602;23.470;2023-01-05T11:00:54;93792.69;;;10.55;81.12
11053;BME280;55230;42.602;23.470;2023-01-05T11:03:27;93777.47;;;10.61;79.31
11053;BME280;55230;42.602;23.470;2023-01-05T11:05:55;93800.28;;;10.69;79.22
11053;BME280;55230;42.602;23.470;2023-01-05T11:08:26;93703.72;;;10.11;78.04
11053;BME280;55230;42.602;23.470;2023-01-05T11:10:56;93758.03;;;10.66;78.24
11053;BME280;55230;42.602;23.470;2023-01-05T11:13:34;93801.06;;;11.21;75.82
11053;BME280;55230;42.602;23.470;2023-01-05T11:16:12;93798.66;;;11.54;76.16
11053;BME280;55230;42.602;23.470;2023-01-05T11:18:45;93779.47;;;11.61;74.41
11053;BME280;55230;42.602;23.470;2023-01-05T11:21:15;93637.19;;;10.82;73.02
11053;BME280;55230;42.602;23.470;2023-01-05T11:23:45;93780.66;;;11.60;72.20
11053;BME280;55230;42.602;23.470;2023-01-05T11:26:24;93777.72;;;11.76;73.17
11053;BME280;55230;42.602;23.470;2023-01-05T11:29:12;93785.28;;;11.99;71.58
11053;BME280;55230;42.602;23.470;2023-01-05T11:31:45;93495.69;;;10.16;71.37
11053;BME280;55230;42.602;23.470;2023-01-05T11:34:27;93784.38;;;11.93;71.32
11053;BME280;55230;42.602;23.470;2023-01-05T11:36:56;93781.53;;;12.06;71.84
11053;BME280;55230;42.602;23.470;2023-01-05T11:39:28;93750.16;;;12.08;70.50
11053;BME280;55230;42.602;23.470;2023-01-05T11:42:19;93779.59;;;12.24;68.88
11053;BME280;55230;42.602;23.470;2023-01-05T11:44:54;93779.16;;;12.35;69.92
11053;BME280;55230;42.602;23.470;2023-01-05T11:47:25;93772.53;;;12.45;69.46
11053;BME280;55230;42.602;23.470;2023-01-05T11:49:59;93768.47;;;12.49;68.88
11053;BME280;55230;42.602;23.470;2023-01-05T11:52:32;93755.88;;;12.55;68.61
11053;BME280;55230;42.602;23.470;2023-01-05T11:55:22;93750.00;;;12.66;68.08
11053;BME280;55230;42.602;23.470;2023-01-05T11:57:53;93750.41;;;12.82;67.17
11053;BME280;55230;42.602;23.470;2023-01-05T12:00:25;93730.59;;;12.67;65.73
11053;BME280;55230;42.602;23.470;2023-01-05T12:03:09;93762.41;;;13.09;64.52
11053;BME280;55230;42.602;23.470;2023-01-05T12:05:45;93726.63;;;12.96;63.10
11053;BME280;55230;42.602;23.470;2023-01-05T12:08:17;93691.81;;;12.70;62.79
11053;BME280;55230;42.602;23.470;2023-01-05T12:10:57;93746.66;;;13.40;63.27
11053;BME280;55230;42.602;23.470;2023-01-05T12:13:45;93744.53;;;13.44;60.62
11053;BME280;55230;42.602;23.470;2023-01-05T12:16:23;93746.38;;;12.78;60.97
11053;BME280;55230;42.602;23.470;2023-01-05T12:22:17;93744.44;;;12.51;63.66
11053;BME280;55230;42.602;23.470;2023-01-05T12:25:01;93713.50;;;11.98;64.38
11053;BME280;55230;42.602;23.470;2023-01-05T12:27:49;93621.94;;;11.64;63.74
11053;BME280;55230;42.602;23.470;2023-01-05T12:30:25;93688.75;;;11.24;67.05
11053;BME280;55230;42.602;23.470;2023-01-05T12:33:07;93524.41;;;9.89;69.76
11053;BME280;55230;42.602;23.470;2023-01-05T12:35:49;93591.38;;;10.52;69.95
11053;BME280;55230;42.602;23.470;2023-01-05T12:38:34;93472.50;;;9.58;69.40
11053;BME280;55230;42.602;23.470;2023-01-05T12:41:28;93576.38;;;10.90;69.61
11053;BME280;55230;42.602;23.470;2023-01-05T12:44:13;93645.25;;;11.22;69.62
11053;BME280;55230;42.602;23.470;2023-01-05T12:46:51;93664.50;;;11.60;68.40
11053;BME280;55230;42.602;23.470;2023-01-05T12:49:25;93633.84;;;11.27;67.74
11053;BME280;55230;42.602;23.470;2023-01-05T12:51:58;93671.84;;;11.41;68.31
11053;BME280;55230;42.602;23.470;2023-01-05T12:54:32;93659.50;;;10.83;70.23
11053;BME280;55230;42.602;23.470;2023-01-05T12:57:04;93687.28;;;10.62;70.78
11053;BME280;55230;42.602;23.470;2023-01-05T12:59:38;93604.09;;;9.77;73.00
11053;BME280;55230;42.602;23.470;2023-01-05T13:02:21;93589.25;;;9.51;73.48
11053;BME280;55230;42.602;23.470;2023-01-05T13:04:56;93682.19;;;10.11;74.43
11053;BME280;55230;42.602;23.470;2023-01-05T13:07:29;93686.69;;;10.36;73.96
11053;BME280;55230;42.602;23.470;2023-01-05T13:09:59;93676.16;;;10.29;73.75
11053;BME280;55230;42.602;23.470;2023-01-05T13:12:27;93662.59;;;10.11;73.55
11053;BME280;55230;42.602;23.470;2023-01-05T13:15:03;93553.13;;;9.61;73.77
11053;BME280;55230;42.602;23.470;2023-01-05T13:17:33;93686.97;;;10.60;74.24
11053;BME280;55230;42.602;23.470;2023-01-05T13:20:04;93687.84;;;10.57;74.33
11053;BME280;55230;42.602;23.470;2023-01-05T13:22:41;93595.09;;;9.71;76.44
11053;BME280;55230;42.602;23.470;2023-01-05T13:25:16;93551.75;;;9.57;75.89
11053;BME280;55230;42.602;23.470;2023-01-05T13:27:44;93609.34;;;9.81;76.86
11053;BME280;55230;42.602;23.470;2023-01-05T13:30:19;93616.22;;;9.60;78.27
11053;BME280;55230;42.602;23.470;2023-01-05T13:33:07;93673.38;;;9.98;78.08
11053;BME280;55230;42.602;23.470;2023-01-05T13:35:48;93639.97;;;9.74;78.04
11053;BME280;55230;42.602;23.470;2023-01-05T13:38:43;93653.22;;;9.81;78.45
11053;BME280;55230;42.602;23.470;2023-01-05T13:41:23;93702.34;;;9.73;79.67
11053;BME280;55230;42.602;23.470;2023-01-05T13:44:20;93682.09;;;9.68;78.01
11053;BME280;55230;42.602;23.470;2023-01-05T13:47:15;93671.09;;;9.75;78.94
11053;BME280;55230;42.602;23.470;2023-01-05T13:50:19;93667.97;;;9.77;78.93